Time;durP1;ratioP1;P1;durP2;ratioP2;P2;SDS_P1;SDS_P2;PMS_P1;PMS_P2;Temp;Humidity;BMP_temperature;BMP_pressure;BME280_temperature;BME280_humidity;BME280_pressure;Samples;Min_cycle;Max_cycle;Signal;HPM_P1;HPM_P2
2022/10/23 00:01:27;;;;;;;3.97;1.30;;;;;;;11.42;100.00;96756.94;4977651;28;20538;-67
2022/10/23 00:03:55;;;;;;;4.03;1.48;;;;;;;11.41;100.00;96758.88;4976754;28;20567;-67
2022/10/23 00:06:21;;;;;;;13.43;1.73;;;;;;;11.48;100.00;96764.47;4973892;28;20061;-66
2022/10/23 00:08:47;;;;;;;3.83;1.10;;;;;;;11.42;100.00;96765.97;4982865;28;20065;-67
2022/10/23 00:11:17;;;;;;;6.03;1.10;;;;;;;11.35;100.00;96754.88;4971541;28;20499;-67
2022/10/23 00:13:42;;;;;;;4.35;1.50;;;;;;;11.29;100.00;96759.13;4982015;28;21635;-67
2022/10/23 00:16:09;;;;;;;3.17;1.05;;;;;;;11.31;100.00;96758.72;4973343;28;20066;-67
2022/10/23 00:18:35;;;;;;;2.92;1.40;;;;;;;11.36;100.00;96753.75;4974494;28;20043;-67
2022/10/23 00:21:01;;;;;;;2.90;1.00;;;;;;;11.33;100.00;96756.44;4982099;28;20039;-66
2022/10/23 00:23:26;;;;;;;2.58;1.20;;;;;;;11.33;100.00;96751.72;4977337;28;20038;-67
2022/10/23 00:25:51;;;;;;;3.47;1.40;;;;;;;11.37;100.00;96752.56;4981596;28;20042;-68
2022/10/23 00:28:17;;;;;;;2.17;0.95;;;;;;;11.37;100.00;96746.28;4992212;28;20042;-68
2022/10/23 00:30:43;;;;;;;3.58;1.02;;;;;;;11.31;100.00;96756.81;5001321;28;20046;-66
2022/10/23 00:33:09;;;;;;;4.80;1.25;;;;;;;11.30;100.00;96744.25;4993184;28;20049;-67
2022/10/23 00:35:39;;;;;;;6.07;1.10;;;;;;;11.20;100.00;96753.09;4985397;28;20049;-66
2022/10/23 00:38:04;;;;;;;2.22;0.98;;;;;;;11.15;100.00;96753.44;4972958;28;20129;-67
2022/10/23 00:40:30;;;;;;;3.47;1.00;;;;;;;11.19;100.00;96754.25;4978213;28;20133;-66
2022/10/23 00:42:55;;;;;;;2.78;1.10;;;;;;;11.21;100.00;96751.94;4983393;28;20038;-67
2022/10/23 00:45:25;;;;;;;3.97;1.10;;;;;;;11.14;100.00;96760.84;4977928;28;20046;-68
2022/10/23 00:47:51;;;;;;;4.47;1.20;;;;;;;11.16;100.00;96760.47;4978148;28;20042;-68
2022/10/23 00:50:17;;;;;;;1.90;1.10;;;;;;;11.07;100.00;96750.59;4975051;28;20076;-67
2022/10/23 00:52:47;;;;;;;2.05;1.20;;;;;;;11.08;100.00;96745.88;4978070;28;20101;-66
2022/10/23 00:55:15;;;;;;;2.50;1.17;;;;;;;11.06;100.00;96740.75;4974352;28;20093;-66
2022/10/23 00:57:43;;;;;;;8.00;1.08;;;;;;;11.04;100.00;96742.31;4978520;28;20399;-68
2022/10/23 01:00:13;;;;;;;2.72;0.90;;;;;;;11.05;100.00;96744.66;4975391;28;20038;-67
2022/10/23 01:02:38;;;;;;;6.15;2.78;;;;;;;11.09;100.00;96737.28;4982778;28;20038;-67
2022/10/23 01:05:04;;;;;;;2.65;1.55;;;;;;;11.13;100.00;96742.03;4975751;28;20054;-69
2022/10/23 01:07:36;;;;;;;4.32;1.10;;;;;;;11.10;100.00;96743.56;4990463;28;20443;-67
2022/10/23 01:10:04;;;;;;;2.50;1.10;;;;;;;11.13;100.00;96729.13;4992351;28;20038;-68
2022/10/23 01:12:39;;;;;;;4.07;1.35;;;;;;;11.05;100.00;96739.16;4975869;28;20059;-66
2022/10/23 01:15:28;;;;;;;1.90;1.00;;;;;;;11.02;100.00;96737.19;4966859;28;20039;-67
2022/10/23 01:18:10;;;;;;;7.65;1.33;;;;;;;11.00;100.00;96733.22;4981872;28;20046;-65
2022/10/23 01:20:42;;;;;;;1.90;0.90;;;;;;;10.97;100.00;96728.50;4976108;28;20042;-66
2022/10/23 01:23:32;;;;;;;2.20;1.00;;;;;;;10.92;100.00;96732.31;4938726;28;20085;-67
2022/10/23 01:25:57;;;;;;;;;;;;;;;10.94;100.00;96724.53;4964229;28;20046;-66
2022/10/23 01:28:35;;;;;;;5.03;1.10;;;;;;;10.90;100.00;96719.00;4973217;28;19914;-66
2022/10/23 01:31:04;;;;;;;9.05;1.10;;;;;;;10.84;100.00;96723.22;4962388;28;20042;-67
2022/10/23 01:33:40;;;;;;;11.60;1.53;;;;;;;10.79;100.00;96720.00;4947359;28;20082;-68
2022/10/23 01:36:11;;;;;;;4.47;1.00;;;;;;;10.73;100.00;96714.00;4959149;28;20041;-68
2022/10/23 01:38:39;;;;;;;4.75;1.08;;;;;;;10.63;100.00;96704.47;4971786;28;20043;-67
2022/10/23 01:41:13;;;;;;;1.92;1.00;;;;;;;10.59;100.00;96711.03;4962088;28;20120;-66
2022/10/23 01:43:52;;;;;;;4.35;1.05;;;;;;;10.56;100.00;96714.53;4982080;28;20045;-67
2022/10/23 01:46:19;;;;;;;5.72;0.90;;;;;;;10.62;100.00;96704.84;4969042;28;20496;-67
2022/10/23 01:48:50;;;;;;;2.88;0.90;;;;;;;10.61;100.00;96715.00;4970877;28;20046;-67
2022/10/23 01:51:17;;;;;;;3.05;0.98;;;;;;;10.58;100.00;96704.78;4963428;28;20543;-67
2022/10/23 01:53:45;;;;;;;1.60;1.10;;;;;;;10.63;100.00;96707.22;4953479;28;20046;-67
2022/10/23 01:56:15;;;;;;;2.05;0.90;;;;;;;10.73;100.00;96707.75;4963069;28;20126;-67
2022/10/23 01:58:44;;;;;;;3.72;1.10;;;;;;;10.77;100.00;96711.34;4954216;28;20043;-67
2022/10/23 02:01:11;;;;;;;2.97;1.00;;;;;;;10.92;100.00;96710.41;4961510;28;20596;-66
2022/10/23 02:03:38;;;;;;;1.67;0.90;;;;;;;10.84;100.00;96704.03;4965829;28;20395;-66
2022/10/23 02:06:04;;;;;;;3.05;1.17;;;;;;;10.82;100.00;96702.81;4939436;28;20035;-67
2022/10/23 02:08:30;;;;;;;3.15;1.02;;;;;;;10.78;100.00;96705.50;4946150;28;20152;-65
2022/10/23 02:11:16;;;;;;;6.28;0.90;;;;;;;10.75;100.00;96699.94;4962532;28;20125;-67
2022/10/23 02:13:52;;;;;;;3.28;1.15;;;;;;;10.70;100.00;96703.81;4960208;28;20090;-66
2022/10/23 02:16:35;;;;;;;3.10;1.33;;;;;;;10.69;100.00;96704.97;4956689;28;20043;-66
2022/10/23 02:19:15;;;;;;;1.60;1.00;;;;;;;10.71;100.00;96703.44;4961479;28;20047;-67
2022/10/23 02:22:10;;;;;;;1.42;1.02;;;;;;;10.78;100.00;96699.22;4966155;28;20043;-67
2022/10/23 02:24:42;;;;;;;14.15;1.75;;;;;;;10.83;100.00;96687.97;4941851;28;20499;-68
2022/10/23 02:27:12;;;;;;;5.55;0.98;;;;;;;10.76;100.00;96690.59;4972116;28;20046;-67
2022/10/23 02:29:44;;;;;;;4.30;0.90;;;;;;;10.79;100.00;96682.44;4984496;28;20467;-67
2022/10/23 02:32:11;;;;;;;4.15;0.95;;;;;;;10.77;100.00;96681.19;4979772;28;20085;-67
2022/10/23 02:34:37;;;;;;;4.35;1.02;;;;;;;10.73;100.00;96669.41;4982268;28;20142;-68
2022/10/23 02:37:03;;;;;;;4.10;0.90;;;;;;;10.67;100.00;96675.19;4981863;28;20129;-68
2022/10/23 02:39:29;;;;;;;3.35;1.25;;;;;;;10.59;100.00;96668.03;4983699;28;20049;-69
2022/10/23 02:42:22;;;;;;;3.80;1.02;;;;;;;10.47;100.00;96669.00;4985133;28;20050;-68
2022/10/23 02:44:48;;;;;;;4.50;0.82;;;;;;;10.48;100.00;96676.06;4983669;28;20042;-69
2022/10/23 02:47:23;;;;;;;2.28;1.00;;;;;;;10.47;100.00;96674.47;4974882;28;20047;-67
2022/10/23 02:50:23;;;;;;;2.80;0.90;;;;;;;10.48;100.00;96680.78;4985598;28;20798;-69
2022/10/23 02:53:06;;;;;;;1.95;1.10;;;;;;;10.47;100.00;96677.22;4985027;28;20049;-68
2022/10/23 02:55:54;;;;;;;2.88;0.95;;;;;;;10.46;100.00;96680.31;4982676;28;20046;-68
2022/10/23 02:58:39;;;;;;;2.08;0.90;;;;;;;10.52;100.00;96681.63;4967559;28;20050;-68
2022/10/23 03:01:12;;;;;;;7.63;1.25;;;;;;;10.56;100.00;96679.72;4979651;28;20043;-69
2022/10/23 03:03:48;;;;;;;2.15;1.00;;;;;;;10.49;100.00;96671.38;4982971;28;20046;-68
2022/10/23 03:06:15;;;;;;;2.97;0.93;;;;;;;10.41;100.00;96675.19;4978372;28;20459;-68
2022/10/23 03:08:47;;;;;;;5.88;1.42;;;;;;;10.32;100.00;96670.72;4982661;28;20050;-68
2022/10/23 03:11:13;;;;;;;6.90;1.20;;;;;;;10.24;100.00;96663.50;4972296;28;20462;-68
2022/10/23 03:13:38;;;;;;;2.47;0.90;;;;;;;10.15;100.00;96665.69;4981811;28;20073;-67
2022/10/23 03:16:04;;;;;;;14.35;1.20;;;;;;;10.09;100.00;96661.69;4980066;28;20627;-68
2022/10/23 03:18:29;;;;;;;5.30;1.20;;;;;;;10.02;100.00;96661.56;4975970;28;20043;-67
2022/10/23 03:20:55;;;;;;;1.30;0.80;;;;;;;9.95;100.00;96664.97;4983805;28;20050;-67
2022/10/23 03:23:21;;;;;;;3.45;1.15;;;;;;;9.91;100.00;96664.13;4978579;28;20455;-67
2022/10/23 03:25:46;;;;;;;3.22;1.35;;;;;;;9.87;100.00;96655.06;4975284;28;20038;-68
2022/10/23 03:28:12;;;;;;;9.38;1.98;;;;;;;9.75;100.00;96654.03;4972564;28;20102;-67
2022/10/23 03:30:37;;;;;;;7.00;1.02;;;;;;;9.58;100.00;96649.06;4963906;28;20066;-68
2022/10/23 03:33:03;;;;;;;4.45;1.10;;;;;;;9.54;100.00;96653.63;4981079;28;20050;-68
2022/10/23 03:35:28;;;;;;;9.32;1.00;;;;;;;9.54;100.00;96648.16;4974268;28;20042;-68
2022/10/23 03:37:54;;;;;;;10.30;1.70;;;;;;;9.61;100.00;96644.78;4980935;28;20058;-67
2022/10/23 03:40:19;;;;;;;6.72;1.60;;;;;;;9.63;100.00;96645.22;4973177;28;20038;-68
2022/10/23 03:42:45;;;;;;;3.72;1.67;;;;;;;9.55;100.00;96647.03;4982048;28;20042;-68
2022/10/23 03:45:10;;;;;;;5.65;1.80;;;;;;;9.55;100.00;96647.81;4977034;28;20042;-69
2022/10/23 03:47:39;;;;;;;9.15;1.90;;;;;;;9.54;100.00;96651.72;4996470;28;20181;-67
2022/10/23 03:50:08;;;;;;;9.10;3.70;;;;;;;9.32;100.00;96647.75;4992769;28;20041;-69
2022/10/23 03:52:34;;;;;;;11.83;1.90;;;;;;;9.12;100.00;96637.97;4989033;28;20126;-67
2022/10/23 03:54:59;;;;;;;7.60;1.90;;;;;;;9.19;100.00;96636.16;4983802;28;20655;-67
2022/10/23 03:57:25;;;;;;;15.10;2.28;;;;;;;9.10;100.00;96635.59;4971879;28;20043;-67
2022/10/23 03:59:51;;;;;;;6.00;2.03;;;;;;;9.06;100.00;96628.47;4981012;28;20137;-68
2022/10/23 04:02:17;;;;;;;4.45;1.77;;;;;;;9.05;100.00;96626.88;4978037;28;20113;-68
2022/10/23 04:04:42;;;;;;;4.90;1.90;;;;;;;9.04;100.00;96625.28;4979101;28;20046;-69
2022/10/23 04:07:07;;;;;;;8.27;2.30;;;;;;;9.05;100.00;96618.69;4978208;28;20559;-67
2022/10/23 04:09:33;;;;;;;8.02;1.90;;;;;;;8.97;100.00;96620.50;4984090;28;20549;-67
2022/10/23 04:11:58;;;;;;;4.90;2.22;;;;;;;8.77;100.00;96619.66;4982942;28;20047;-67
2022/10/23 04:14:24;;;;;;;5.53;1.95;;;;;;;8.70;100.00;96614.06;4970036;28;20629;-68
2022/10/23 04:16:50;;;;;;;4.57;2.05;;;;;;;8.60;100.00;96609.91;4981056;28;20046;-68
2022/10/23 04:19:16;;;;;;;5.40;2.10;;;;;;;8.58;100.00;96615.72;4978988;28;20046;-68
2022/10/23 04:21:42;;;;;;;6.88;2.90;;;;;;;8.49;100.00;96611.63;4982118;28;20054;-68
2022/10/23 04:24:09;;;;;;;7.90;2.38;;;;;;;8.38;100.00;96614.06;4968668;28;20133;-69
2022/10/23 04:26:35;;;;;;;8.85;2.38;;;;;;;8.42;100.00;96617.69;4983330;28;20141;-69
2022/10/23 04:29:00;;;;;;;11.27;2.60;;;;;;;8.33;100.00;96622.53;4974653;28;20097;-68
2022/10/23 04:31:26;;;;;;;9.60;2.35;;;;;;;8.28;100.00;96620.84;4978323;28;20157;-68
2022/10/23 04:33:51;;;;;;;6.30;2.08;;;;;;;8.18;100.00;96621.41;4982351;28;20050;-69
2022/10/23 04:36:17;;;;;;;4.20;2.33;;;;;;;8.22;100.00;96630.44;4973545;28;20030;-68
2022/10/23 04:38:42;;;;;;;8.48;2.33;;;;;;;8.22;100.00;96635.91;4973999;28;20050;-68
2022/10/23 04:41:07;;;;;;;4.47;2.10;;;;;;;8.13;100.00;96627.13;4972955;28;20038;-68
2022/10/23 04:43:33;;;;;;;9.88;1.98;;;;;;;8.04;100.00;96619.09;4984045;28;20423;-70
2022/10/23 04:45:58;;;;;;;6.40;1.88;;;;;;;8.02;100.00;96619.44;4984049;28;20388;-68
2022/10/23 04:48:24;;;;;;;3.65;1.80;;;;;;;8.06;100.00;96624.22;4969585;28;20404;-67
2022/10/23 04:50:58;;;;;;;4.38;1.80;;;;;;;8.15;100.00;96622.88;4984994;28;20042;-67
2022/10/23 04:53:24;;;;;;;6.30;2.20;;;;;;;8.19;100.00;96614.78;4996236;28;20176;-68
2022/10/23 04:55:52;;;;;;;7.03;2.00;;;;;;;8.37;100.00;96607.03;4994431;28;20027;-67
2022/10/23 04:58:17;;;;;;;7.88;2.00;;;;;;;8.32;100.00;96610.00;4983877;28;20039;-68
2022/10/23 05:00:44;;;;;;;9.45;2.03;;;;;;;8.27;100.00;96623.94;4981001;28;20070;-66
2022/10/23 05:03:09;;;;;;;14.68;2.85;;;;;;;8.29;100.00;96618.94;4975962;28;20045;-68
2022/10/23 05:05:34;;;;;;;3.17;2.20;;;;;;;8.25;100.00;96618.84;4969578;28;20042;-69
2022/10/23 05:08:00;;;;;;;5.45;2.15;;;;;;;8.26;100.00;96611.44;4963033;28;20063;-67
2022/10/23 05:10:25;;;;;;;8.20;2.63;;;;;;;8.35;100.00;96617.50;4959794;28;20050;-69
2022/10/23 05:12:51;;;;;;;3.58;2.50;;;;;;;8.45;100.00;96619.72;4983090;28;20054;-68
2022/10/23 05:15:16;;;;;;;12.50;3.00;;;;;;;8.37;100.00;96602.38;4982353;28;20133;-68
2022/10/23 05:17:44;;;;;;;5.82;2.83;;;;;;;8.35;100.00;96598.41;4986430;28;20054;-67
2022/10/23 05:20:15;;;;;;;6.68;2.30;;;;;;;8.30;100.00;96612.31;4981490;28;20038;-69
2022/10/23 05:22:43;;;;;;;5.22;2.47;;;;;;;8.23;100.00;96613.72;4988701;28;20052;-67
2022/10/23 05:25:08;;;;;;;6.55;2.33;;;;;;;8.14;100.00;96607.66;4970878;28;20507;-67
2022/10/23 05:27:34;;;;;;;7.43;2.50;;;;;;;8.18;100.00;96605.03;4977712;28;20062;-66
2022/10/23 05:30:01;;;;;;;10.55;2.50;;;;;;;8.12;100.00;96601.78;4982166;28;20050;-67
2022/10/23 05:32:30;;;;;;;9.98;2.83;;;;;;;8.00;100.00;96602.66;4974814;28;20042;-67
2022/10/23 05:34:55;;;;;;;4.90;2.63;;;;;;;8.08;100.00;96589.97;4981414;28;20039;-67
2022/10/23 05:37:21;;;;;;;11.70;2.78;;;;;;;8.03;100.00;96593.78;4974436;28;20081;-67
2022/10/23 05:39:46;;;;;;;5.80;2.70;;;;;;;7.89;100.00;96603.53;4981566;28;20523;-66
2022/10/23 05:42:12;;;;;;;7.40;2.47;;;;;;;7.46;100.00;96606.72;4976053;28;20045;-67
2022/10/23 05:44:37;;;;;;;6.07;2.70;;;;;;;7.27;100.00;96596.50;4981998;28;20077;-66
2022/10/23 05:47:03;;;;;;;5.75;3.03;;;;;;;7.35;100.00;96602.91;4978315;28;20057;-67
2022/10/23 05:49:28;;;;;;;4.05;2.70;;;;;;;7.52;100.00;96615.44;4979552;28;20050;-67
2022/10/23 05:51:53;;;;;;;6.60;2.47;;;;;;;7.69;100.00;96616.25;4980716;28;20076;-67
2022/10/23 05:54:19;;;;;;;7.03;2.92;;;;;;;7.68;100.00;96601.06;4976093;28;20105;-66
2022/10/23 05:56:44;;;;;;;6.63;3.17;;;;;;;7.58;100.00;96597.69;4976814;28;20043;-66
2022/10/23 05:59:10;;;;;;;8.25;2.70;;;;;;;7.60;100.00;96595.41;4968566;28;20518;-66
2022/10/23 06:01:36;;;;;;;7.38;2.20;;;;;;;7.68;100.00;96614.69;4979999;28;20043;-67
2022/10/23 06:04:03;;;;;;;3.28;2.40;;;;;;;7.75;100.00;96614.88;4980405;28;20050;-66
2022/10/23 06:06:29;;;;;;;6.18;2.50;;;;;;;7.89;100.00;96600.81;4961186;28;20133;-66
2022/10/23 06:08:55;;;;;;;7.13;3.03;;;;;;;7.96;100.00;96612.69;4970489;28;20169;-67
2022/10/23 06:11:20;;;;;;;7.30;2.17;;;;;;;7.84;100.00;96616.28;4977028;28;20875;-66
2022/10/23 06:13:47;;;;;;;3.78;2.40;;;;;;;7.70;100.00;96610.44;4979771;28;20100;-67
2022/10/23 06:16:15;;;;;;;9.48;2.60;;;;;;;7.73;100.00;96628.84;4976960;28;20043;-71
2022/10/23 06:18:44;;;;;;;7.10;2.42;;;;;;;7.93;100.00;96628.97;4980126;28;20088;-66
2022/10/23 06:21:10;;;;;;;4.38;2.10;;;;;;;8.13;100.00;96635.28;4974921;28;20123;-67
2022/10/23 06:23:37;;;;;;;8.40;2.65;;;;;;;8.29;100.00;96627.13;4976471;28;20081;-67
2022/10/23 06:26:08;;;;;;;8.18;2.50;;;;;;;7.76;100.00;96628.16;4979901;28;20053;-68
2022/10/23 06:28:34;;;;;;;4.60;2.85;;;;;;;7.73;100.00;96625.34;4995155;28;20038;-67
2022/10/23 06:31:04;;;;;;;10.05;2.65;;;;;;;8.22;100.00;96635.91;4974963;28;20099;-67
2022/10/23 06:33:30;;;;;;;7.97;3.58;;;;;;;8.60;100.00;96631.75;4981253;28;20061;-68
2022/10/23 06:35:55;;;;;;;12.95;4.15;;;;;;;8.79;100.00;96626.34;4979572;28;20038;-68
2022/10/23 06:38:21;;;;;;;10.15;4.25;;;;;;;8.77;100.00;96625.13;4973287;28;20947;-68
2022/10/23 06:40:54;;;;;;;9.13;3.58;;;;;;;8.94;100.00;96635.63;4980542;28;20096;-70
2022/10/23 06:43:19;;;;;;;4.95;3.25;;;;;;;9.05;100.00;96633.13;4972697;28;20031;-68
2022/10/23 06:45:45;;;;;;;8.90;3.60;;;;;;;9.36;100.00;96642.34;4971843;28;20377;-67
2022/10/23 06:48:11;;;;;;;8.63;3.30;;;;;;;9.56;100.00;96637.66;4976729;28;20066;-67
2022/10/23 06:50:37;;;;;;;11.07;5.38;;;;;;;9.29;100.00;96636.75;4981055;28;20488;-68
2022/10/23 06:53:04;;;;;;;28.42;18.17;;;;;;;8.61;100.00;96619.69;4975449;28;20492;-69
2022/10/23 06:55:31;;;;;;;9.05;6.00;;;;;;;8.11;100.00;96621.22;4972116;28;20053;-67
2022/10/23 06:57:56;;;;;;;13.88;5.00;;;;;;;8.36;100.00;96627.28;4982936;28;20050;-67
2022/10/23 07:00:22;;;;;;;15.95;10.25;;;;;;;8.47;100.00;96624.84;4976203;28;20487;-68
2022/10/23 07:02:48;;;;;;;7.05;3.75;;;;;;;8.58;100.00;96626.66;4976236;28;20112;-69
2022/10/23 07:05:14;;;;;;;6.40;3.75;;;;;;;8.97;100.00;96632.19;4969642;28;20129;-68
2022/10/23 07:07:39;;;;;;;5.35;3.97;;;;;;;9.37;100.00;96633.78;4981062;28;20133;-67
2022/10/23 07:10:05;;;;;;;9.50;3.80;;;;;;;9.75;100.00;96640.38;4976382;28;20404;-69
2022/10/23 07:12:30;;;;;;;9.85;3.78;;;;;;;9.92;100.00;96638.31;4980046;28;20074;-68
2022/10/23 07:14:56;;;;;;;12.57;5.85;;;;;;;10.16;100.00;96645.41;4976448;28;20046;-68
2022/10/23 07:17:21;;;;;;;3.83;2.50;;;;;;;10.39;100.00;96622.72;4976017;28;22271;-68
2022/10/23 07:19:47;;;;;;;13.80;3.63;;;;;;;10.40;100.00;96638.00;4981746;28;20487;-67
2022/10/23 07:22:12;;;;;;;6.78;3.38;;;;;;;10.62;100.00;96658.28;4976580;28;20097;-68
2022/10/23 07:24:39;;;;;;;19.67;4.88;;;;;;;11.24;100.00;96658.00;4976050;28;20047;-67
2022/10/23 07:27:04;;;;;;;8.38;2.92;;;;;;;12.22;100.00;96650.47;4979072;28;20042;-68
2022/10/23 07:29:31;;;;;;;10.02;3.05;;;;;;;12.86;100.00;96649.41;4989301;28;20044;-68
2022/10/23 07:31:57;;;;;;;11.43;3.13;;;;;;;14.11;100.00;96646.38;4981497;28;20034;-68
2022/10/23 07:34:23;;;;;;;7.90;1.73;;;;;;;14.03;100.00;96646.78;4991646;28;20133;-68
2022/10/23 07:36:48;;;;;;;3.78;1.80;;;;;;;14.98;100.00;96662.94;4992148;28;20085;-67
2022/10/23 07:39:14;;;;;;;3.08;1.80;;;;;;;16.14;90.18;96664.13;4976667;28;20038;-67
2022/10/23 07:41:40;;;;;;;8.32;1.98;;;;;;;14.84;95.51;96650.00;4975473;28;20070;-69
2022/10/23 07:44:05;;;;;;;6.88;2.70;;;;;;;15.26;99.56;96667.63;4978964;28;20389;-69
2022/10/23 07:46:31;;;;;;;5.97;1.77;;;;;;;16.42;88.45;96665.91;4975522;28;20077;-69
2022/10/23 07:48:56;;;;;;;5.78;1.63;;;;;;;16.26;83.69;96652.63;4984264;28;20073;-68
2022/10/23 07:51:21;;;;;;;10.30;1.27;;;;;;;16.51;88.12;96652.44;4968567;28;20748;-68
2022/10/23 07:53:47;;;;;;;8.75;1.52;;;;;;;17.89;77.52;96644.31;4982710;28;20061;-69
2022/10/23 07:56:30;;;;;;;3.38;1.42;;;;;;;18.66;71.59;96646.31;4979168;28;20101;-67
2022/10/23 07:58:57;;;;;;;7.45;2.17;;;;;;;18.10;72.63;96649.56;4984314;28;20042;-67
2022/10/23 08:01:32;;;;;;;10.60;4.90;;;;;;;17.89;71.68;96647.06;4994698;28;20070;-68
2022/10/23 08:03:58;;;;;;;4.22;1.42;;;;;;;18.44;72.66;96647.84;4986694;28;20038;-68
2022/10/23 08:06:24;;;;;;;3.50;1.33;;;;;;;19.27;69.10;96642.50;4982101;28;20101;-67
2022/10/23 08:08:49;;;;;;;4.45;1.58;;;;;;;19.83;64.62;96652.16;4986180;28;20141;-68
2022/10/23 08:11:18;;;;;;;2.78;1.25;;;;;;;19.83;63.27;96652.94;4970775;28;20455;-67
2022/10/23 08:13:43;;;;;;;7.80;1.48;;;;;;;20.05;59.87;96644.13;4980769;28;20500;-67
2022/10/23 08:16:08;;;;;;;3.70;1.20;;;;;;;19.82;62.93;96656.13;4982619;28;20053;-68
2022/10/23 08:18:34;;;;;;;6.50;1.30;;;;;;;20.69;60.31;96638.31;4986622;28;20134;-68
2022/10/23 08:21:01;;;;;;;3.05;1.13;;;;;;;20.95;59.31;96630.91;4992046;28;20042;-68
2022/10/23 08:23:27;;;;;;;2.30;1.08;;;;;;;21.11;57.62;96642.00;4982529;28;20069;-68
2022/10/23 08:26:00;;;;;;;6.07;1.17;;;;;;;20.65;60.58;96641.19;4983043;28;20054;-68
2022/10/23 08:28:26;;;;;;;2.60;1.20;;;;;;;21.13;59.46;96639.56;4977410;28;20042;-68
2022/10/23 08:30:52;;;;;;;3.03;0.82;;;;;;;21.07;58.71;96626.59;4983725;28;20061;-68
2022/10/23 08:33:17;;;;;;;11.43;2.88;;;;;;;20.22;60.97;96617.94;4977882;28;20046;-69
2022/10/23 08:35:43;;;;;;;3.38;1.10;;;;;;;20.78;58.46;96625.34;4984387;28;20046;-69
2022/10/23 08:38:09;;;;;;;5.03;2.10;;;;;;;20.50;59.76;96604.53;4983178;28;20136;-68
2022/10/23 08:40:35;;;;;;;5.15;1.90;;;;;;;21.72;56.89;96609.69;4992881;28;20050;-67
2022/10/23 08:43:04;;;;;;;6.50;1.67;;;;;;;22.08;54.58;96605.84;4964345;28;20070;-67
2022/10/23 08:45:35;;;;;;;1.67;1.00;;;;;;;22.00;53.74;96614.88;4963481;28;20052;-66
2022/10/23 08:48:12;;;;;;;6.65;1.40;;;;;;;22.05;53.11;96620.66;4964373;28;20460;-68
2022/10/23 08:50:47;;;;;;;3.50;0.90;;;;;;;22.94;49.77;96619.06;4969656;28;20050;-67
2022/10/23 08:53:21;;;;;;;2.92;0.93;;;;;;;22.22;52.54;96621.38;4978861;28;20062;-67
2022/10/23 08:56:11;;;;;;;3.33;0.88;;;;;;;22.56;50.25;96619.13;4972660;28;20101;-67
2022/10/23 08:58:44;;;;;;;2.25;0.88;;;;;;;20.15;57.31;96608.94;4951647;28;20392;-67
2022/10/23 09:01:39;;;;;;;4.95;1.33;;;;;;;21.30;55.51;96612.47;4963527;28;20046;-67
2022/10/23 09:04:05;;;;;;;2.50;1.00;;;;;;;20.97;53.74;96606.97;4959712;28;20046;-66
2022/10/23 09:06:46;;;;;;;1.88;1.00;;;;;;;21.08;54.64;96603.88;4994937;28;20049;-67
2022/10/23 09:09:38;;;;;;;3.53;1.05;;;;;;;21.39;54.64;96609.81;4983125;28;20065;-66
2022/10/23 09:12:12;;;;;;;4.00;1.10;;;;;;;21.00;55.28;96608.09;4972286;28;20042;-66
2022/10/23 09:14:42;;;;;;;2.40;0.93;;;;;;;19.86;60.54;96590.94;4983692;28;20049;-67
2022/10/23 09:17:25;;;;;;;3.70;1.25;;;;;;;19.33;64.00;96592.03;4976292;28;20045;-66
2022/10/23 09:20:06;;;;;;;5.65;1.30;;;;;;;18.36;65.45;96604.81;4982607;28;20050;-67
2022/10/23 09:22:32;;;;;;;5.13;1.10;;;;;;;17.76;70.56;96588.66;4967089;28;20043;-67
2022/10/23 09:24:57;;;;;;;4.65;2.72;;;;;;;15.84;86.79;96574.34;4970529;28;20074;-67
2022/10/23 09:27:22;;;;;;;3.63;1.92;;;;;;;16.52;85.66;96586.84;4969435;28;20535;-66
2022/10/23 09:29:54;;;;;;;4.45;1.10;;;;;;;17.43;79.22;96596.59;4969887;28;20042;-65
2022/10/23 09:32:31;;;;;;;2.55;1.30;;;;;;;17.80;75.48;96589.38;4972855;28;20073;-67
2022/10/23 09:34:57;;;;;;;4.88;1.10;;;;;;;17.77;76.24;96577.16;4971681;28;20043;-66
2022/10/23 09:37:31;;;;;;;4.97;2.08;;;;;;;18.20;77.02;96580.53;4957669;28;20073;-65
2022/10/23 09:40:03;;;;;;;5.88;1.42;;;;;;;18.92;71.42;96582.88;4962488;28;20050;-68
2022/10/23 09:42:28;;;;;;;5.10;1.13;;;;;;;18.75;69.90;96576.44;4946203;28;20384;-67
2022/10/23 09:44:54;;;;;;;4.97;1.10;;;;;;;19.22;68.92;96573.59;4959912;28;20047;-66
2022/10/23 09:47:23;;;;;;;2.25;1.10;;;;;;;19.97;64.20;96576.00;4944506;28;20050;-67
2022/10/23 09:49:51;;;;;;;4.57;0.90;;;;;;;20.10;61.62;96574.13;4959236;28;20046;-67
2022/10/23 09:52:16;;;;;;;6.47;0.93;;;;;;;20.13;62.53;96587.16;4961098;28;20121;-68
2022/10/23 09:54:56;;;;;;;2.15;1.20;;;;;;;20.19;62.43;96565.97;4962905;28;20046;-68
2022/10/23 09:57:35;;;;;;;4.15;0.82;;;;;;;20.24;61.42;96565.44;4955108;28;20074;-68
2022/10/23 10:00:14;;;;;;;;;;;;;;;20.35;61.10;96581.88;4955057;28;20400;-68
2022/10/23 10:02:41;;;;;;;1.85;0.82;;;;;;;20.14;62.48;96569.25;4963371;28;19921;-69
2022/10/23 10:05:23;;;;;;;16.30;1.10;;;;;;;19.03;68.65;96566.03;4948720;28;20097;-69
2022/10/23 10:07:58;;;;;;;6.65;1.00;;;;;;;19.55;68.17;96582.03;4950320;28;20070;-68
2022/10/23 10:10:27;;;;;;;3.53;1.10;;;;;;;19.68;65.23;96568.28;4969280;28;20057;-68
2022/10/23 10:12:57;;;;;;;2.17;0.75;;;;;;;18.64;71.94;96551.66;4982892;28;20090;-68
2022/10/23 10:15:27;;;;;;;4.13;1.30;;;;;;;17.65;77.40;96557.56;4967510;28;20054;-68
2022/10/23 10:18:09;;;;;;;4.30;1.45;;;;;;;18.14;77.39;96574.66;4972492;28;20070;-69
2022/10/23 10:21:03;;;;;;;3.38;1.60;;;;;;;18.91;72.75;96553.59;4980953;28;20038;-69
2022/10/23 10:23:40;;;;;;;6.45;0.88;;;;;;;18.37;72.76;96553.72;4980429;28;20496;-69
2022/10/23 10:26:25;;;;;;;4.20;1.20;;;;;;;17.67;76.63;96542.09;4961426;28;20042;-66
2022/10/23 10:29:16;;;;;;;1.60;0.90;;;;;;;17.41;81.83;96540.84;4963859;28;20592;-68
2022/10/23 10:32:15;;;;;;;3.72;1.05;;;;;;;18.96;77.58;96542.00;4962802;28;20133;-68
2022/10/23 10:34:52;;;;;;;3.15;0.70;;;;;;;18.52;74.69;96536.41;4962250;28;20126;-68
2022/10/23 10:37:59;;;;;;;3.97;1.10;;;;;;;16.76;86.17;96529.72;4971939;28;20067;-68
2022/10/23 10:40:37;;;;;;;3.45;0.98;;;;;;;17.88;83.54;96543.78;4943085;28;20053;-68
2022/10/23 10:43:17;;;;;;;7.45;1.92;;;;;;;18.64;79.87;96523.91;4939489;28;20043;-68
2022/10/23 10:45:48;;;;;;;2.10;0.93;;;;;;;17.96;78.98;96520.31;4964678;28;20052;-69
2022/10/23 10:48:40;;;;;;;2.40;0.75;;;;;;;17.93;83.19;96536.97;4965077;28;20101;-67
2022/10/23 10:51:10;;;;;;;5.05;1.25;;;;;;;18.90;80.89;96532.56;4939988;28;20510;-66
2022/10/23 10:53:47;;;;;;;4.47;2.10;;;;;;;18.97;79.88;96526.88;4942529;28;20054;-69
2022/10/23 10:56:17;;;;;;;2.45;1.20;;;;;;;19.00;80.44;96530.81;4968362;28;20046;-70
2022/10/23 10:58:57;;;;;;;1.95;1.17;;;;;;;19.34;77.57;96526.94;4960681;28;20051;-69
2022/10/23 11:01:55;;;;;;;3.97;0.98;;;;;;;19.47;77.47;96513.97;4945811;28;20792;-68
2022/10/23 11:04:50;;;;;;;3.42;1.13;;;;;;;18.76;83.09;96505.06;4938213;28;20117;-68
2022/10/23 11:07:22;;;;;;;2.75;1.20;;;;;;;18.64;84.50;96521.16;4962872;28;20540;-67
2022/10/23 11:09:48;;;;;;;3.55;1.00;;;;;;;18.56;84.45;96508.59;4965142;28;20058;-69
2022/10/23 11:12:20;;;;;;;3.00;1.00;;;;;;;18.49;84.90;96501.22;4960611;28;20115;-67
2022/10/23 11:14:46;;;;;;;3.40;1.10;;;;;;;18.31;86.80;96497.94;4963281;28;20492;-67
2022/10/23 11:17:26;;;;;;;3.38;1.05;;;;;;;18.35;86.24;96498.69;4958004;28;20066;-68
2022/10/23 11:20:04;;;;;;;3.13;1.10;;;;;;;18.67;82.54;96494.53;4964373;28;20090;-68
2022/10/23 11:22:34;;;;;;;6.50;1.20;;;;;;;18.94;81.18;96485.34;4984371;28;20054;-68
2022/10/23 11:25:12;;;;;;;3.97;1.50;;;;;;;19.23;81.91;96497.44;4982779;28;20038;-67
2022/10/23 11:27:53;;;;;;;2.45;1.52;;;;;;;19.26;81.99;96496.53;4966606;28;20141;-67
2022/10/23 11:30:28;;;;;;;5.03;1.30;;;;;;;18.96;84.83;96480.94;4978738;28;20121;-67
2022/10/23 11:33:24;;;;;;;2.13;1.23;;;;;;;18.84;84.40;96482.34;4975633;28;20082;-69
2022/10/23 11:36:27;;;;;;;3.13;1.25;;;;;;;18.76;87.18;96478.09;4962841;28;20034;-69
2022/10/23 11:38:57;;;;;;;3.38;1.10;;;;;;;18.62;88.73;96483.94;4985175;28;20050;-68
2022/10/23 11:41:28;;;;;;;1.95;1.25;;;;;;;18.88;87.88;96476.72;4978690;28;20058;-67
2022/10/23 11:44:03;;;;;;;3.65;1.38;;;;;;;18.83;88.52;96478.00;4985549;28;20054;-71